createdAt,value
2017-10-02T00:00:02.123Z,985.00
2017-10-02T00:01:02.156Z,985.00
2017-10-02T00:02:02.225Z,984.96
2017-10-02T00:03:02.230Z,984.98
2017-10-02T00:04:02.260Z,984.97
2017-10-02T00:05:02.293Z,984.96
2017-10-02T00:06:02.330Z,984.99
2017-10-02T00:07:02.365Z,984.90
2017-10-02T00:08:02.398Z,984.90
2017-10-02T00:09:02.437Z,984.90
2017-10-02T00:10:02.473Z,984.93
2017-10-02T00:11:02.510Z,984.90
2017-10-02T00:12:02.546Z,984.91
2017-10-02T00:13:02.577Z,984.91
2017-10-02T00:14:02.614Z,984.93
2017-10-02T00:15:02.645Z,984.93
2017-10-02T00:16:02.680Z,984.95
2017-10-02T00:17:02.722Z,984.92
2017-10-02T00:18:02.750Z,984.90
2017-10-02T00:19:02.789Z,984.89
2017-10-02T00:20:02.823Z,984.88
2017-10-02T00:21:02.856Z,984.90
2017-10-02T00:22:02.892Z,984.90
2017-10-02T00:23:02.925Z,984.87
2017-10-02T00:24:02.968Z,984.84
2017-10-02T00:25:02.999Z,984.81
2017-10-02T00:26:03.030Z,984.79
2017-10-02T00:27:03.066Z,984.83
2017-10-02T00:28:03.101Z,984.85
2017-10-02T00:29:03.136Z,984.85
2017-10-02T00:30:03.170Z,984.86
2017-10-02T00:31:03.209Z,984.85
2017-10-02T00:32:03.244Z,984.88
2017-10-02T00:33:03.282Z,984.87
2017-10-02T00:34:03.314Z,984.88
2017-10-02T00:35:03.354Z,984.85
2017-10-02T00:36:03.392Z,984.89
2017-10-02T00:37:03.424Z,984.93
2017-10-02T00:38:03.454Z,984.92
2017-10-02T00:39:03.488Z,984.89
2017-10-02T00:40:03.524Z,984.89
2017-10-02T00:41:03.568Z,984.90
2017-10-02T00:42:03.604Z,984.89
2017-10-02T00:43:03.627Z,984.89
2017-10-02T00:44:03.663Z,984.87
2017-10-02T00:45:03.702Z,984.84
2017-10-02T00:46:03.738Z,984.85
2017-10-02T00:47:03.773Z,984.83
2017-10-02T00:48:03.804Z,984.81
2017-10-02T00:49:03.841Z,984.84
2017-10-02T00:50:03.875Z,984.79
2017-10-02T00:51:03.913Z,984.74
2017-10-02T00:52:03.947Z,984.78
2017-10-02T00:53:03.980Z,984.75
2017-10-02T00:54:04.023Z,984.75
2017-10-02T00:55:04.053Z,984.77
2017-10-02T00:56:04.084Z,984.81
2017-10-02T00:57:04.122Z,984.80
2017-10-02T00:58:04.160Z,984.79
2017-10-02T00:59:04.196Z,984.80
2017-10-02T01:00:04.235Z,984.78
2017-10-02T01:01:04.267Z,984.75
2017-10-02T01:02:04.306Z,984.72
2017-10-02T01:03:04.332Z,984.75
2017-10-02T01:04:04.367Z,984.67
2017-10-02T01:05:04.405Z,984.61
2017-10-02T01:06:04.441Z,984.60
2017-10-02T01:07:04.478Z,984.61
2017-10-02T01:08:04.509Z,984.53
2017-10-02T01:09:04.545Z,984.50
2017-10-02T01:10:04.582Z,984.43
2017-10-02T01:11:04.613Z,984.43
2017-10-02T01:12:04.650Z,984.45
2017-10-02T01:13:04.684Z,984.43
2017-10-02T01:14:04.723Z,984.42
2017-10-02T01:15:04.755Z,984.45
2017-10-02T01:16:04.793Z,984.40
2017-10-02T01:17:04.835Z,984.51
2017-10-02T01:18:04.860Z,984.45
2017-10-02T01:19:04.894Z,984.47
2017-10-02T01:20:04.934Z,984.43
2017-10-02T01:21:04.968Z,984.38
2017-10-02T01:22:05.001Z,984.37
2017-10-02T01:23:05.034Z,984.35
2017-10-02T01:24:05.068Z,984.28
2017-10-02T01:25:05.107Z,984.29
2017-10-02T01:26:05.141Z,984.29
2017-10-02T01:27:05.175Z,984.22
2017-10-02T01:28:05.212Z,984.20
2017-10-02T01:29:05.247Z,984.18
2017-10-02T01:30:05.284Z,984.21
2017-10-02T01:31:05.316Z,984.17
2017-10-02T01:32:05.358Z,984.19
2017-10-02T01:33:05.383Z,984.14
2017-10-02T01:34:05.436Z,984.18
2017-10-02T01:35:05.458Z,984.16
2017-10-02T01:36:05.494Z,984.10
2017-10-02T01:37:05.529Z,984.07
2017-10-02T01:38:05.559Z,984.04
2017-10-02T01:39:05.596Z,984.02
2017-10-02T01:40:05.631Z,984.07
2017-10-02T01:41:05.672Z,984.11
2017-10-02T01:42:05.706Z,984.10
2017-10-02T01:43:05.743Z,984.08
2017-10-02T01:44:05.770Z,984.10
2017-10-02T01:45:05.808Z,984.11
2017-10-02T01:46:05.846Z,984.07
2017-10-02T01:47:05.874Z,984.01
2017-10-02T01:48:05.912Z,983.96
2017-10-02T01:49:05.946Z,983.97
2017-10-02T01:50:05.984Z,983.94
2017-10-02T01:51:06.016Z,983.96
2017-10-02T01:52:06.060Z,983.96
2017-10-02T01:53:06.091Z,983.97
2017-10-02T01:54:06.126Z,983.99
2017-10-02T01:55:06.156Z,983.95
2017-10-02T01:56:06.193Z,983.97
2017-10-02T01:57:06.239Z,983.95
2017-10-02T01:58:06.261Z,983.95
2017-10-02T01:59:06.292Z,983.98
2017-10-02T02:00:06.331Z,983.96
2017-10-02T02:01:06.367Z,983.94
2017-10-02T02:02:06.408Z,983.90
2017-10-02T02:03:06.441Z,983.90
2017-10-02T02:04:06.469Z,983.91
2017-10-02T02:05:06.510Z,983.89
2017-10-02T02:06:06.542Z,983.88
2017-10-02T02:07:06.589Z,983.89
2017-10-02T02:08:06.618Z,983.86
2017-10-02T02:09:06.650Z,983.85
2017-10-02T02:10:06.684Z,983.82
2017-10-02T02:11:06.718Z,983.80
2017-10-02T02:12:06.753Z,983.83
2017-10-02T02:13:06.784Z,983.79
2017-10-02T02:14:06.823Z,983.83
2017-10-02T02:15:06.856Z,983.83
2017-10-02T02:16:06.888Z,983.79
2017-10-02T02:17:06.935Z,983.80
2017-10-02T02:18:06.959Z,983.77
2017-10-02T02:19:06.992Z,983.76
2017-10-02T02:20:07.027Z,983.76
2017-10-02T02:21:07.063Z,983.66
2017-10-02T02:22:07.101Z,983.66
2017-10-02T02:23:07.135Z,983.61
2017-10-02T02:24:07.171Z,983.66
2017-10-02T02:25:07.206Z,983.63
2017-10-02T02:26:07.238Z,983.62
2017-10-02T02:27:07.271Z,983.58
2017-10-02T02:28:07.309Z,983.59
2017-10-02T02:29:07.342Z,983.53
2017-10-02T02:30:07.386Z,983.58
2017-10-02T02:31:07.416Z,983.58
2017-10-02T02:32:07.448Z,983.53
2017-10-02T02:33:07.480Z,983.52
2017-10-02T02:34:07.519Z,983.58
2017-10-02T02:35:07.550Z,983.53
2017-10-02T02:36:07.593Z,983.54
2017-10-02T02:37:07.626Z,983.48
2017-10-02T02:38:07.657Z,983.55
2017-10-02T02:39:07.691Z,983.55
2017-10-02T02:40:07.729Z,983.51
2017-10-02T02:41:07.761Z,983.49
2017-10-02T02:42:07.800Z,983.53
2017-10-02T02:43:07.829Z,983.47
2017-10-02T02:44:07.864Z,983.50
2017-10-02T02:45:07.902Z,983.53
2017-10-02T02:46:07.939Z,983.48
2017-10-02T02:47:07.970Z,983.50
2017-10-02T02:48:08.004Z,983.47
2017-10-02T02:49:08.040Z,983.52
2017-10-02T02:50:08.073Z,983.54
2017-10-02T02:51:08.109Z,983.53
2017-10-02T02:52:08.143Z,983.49
2017-10-02T02:53:08.182Z,983.48
2017-10-02T02:54:08.213Z,983.43
2017-10-02T02:55:08.252Z,983.44
2017-10-02T02:56:08.286Z,983.45
2017-10-02T02:57:08.320Z,983.40
2017-10-02T02:58:08.359Z,983.48
2017-10-02T02:59:09.109Z,983.45
2017-10-02T03:00:08.425Z,983.46
2017-10-02T03:01:08.456Z,983.43
2017-10-02T03:02:08.493Z,983.38
2017-10-02T03:03:08.530Z,983.37
2017-10-02T03:04:08.563Z,983.38
2017-10-02T03:05:08.595Z,983.37
2017-10-02T03:06:08.631Z,983.32
2017-10-02T03:07:08.663Z,983.34
2017-10-02T03:08:08.707Z,983.36
2017-10-02T03:09:08.738Z,983.32
2017-10-02T03:10:08.773Z,983.33
2017-10-02T03:11:08.805Z,983.35
2017-10-02T03:12:08.842Z,983.36
2017-10-02T03:13:08.884Z,983.38
2017-10-02T03:14:08.909Z,983.36
2017-10-02T03:15:08.946Z,983.34
2017-10-02T03:16:08.978Z,983.36
2017-10-02T03:17:09.019Z,983.36
2017-10-02T03:18:09.047Z,983.32
2017-10-02T03:19:09.084Z,983.36
2017-10-02T03:20:09.118Z,983.33
2017-10-02T03:21:09.153Z,983.32
2017-10-02T03:22:09.187Z,983.32
2017-10-02T03:23:09.219Z,983.34
2017-10-02T03:24:09.256Z,983.35
2017-10-02T03:25:09.293Z,983.37
2017-10-02T03:26:09.327Z,983.40
2017-10-02T03:27:09.361Z,983.39
2017-10-02T03:28:09.395Z,983.38
2017-10-02T03:29:09.430Z,983.36
2017-10-02T03:30:09.466Z,983.39
2017-10-02T03:31:09.496Z,983.39
2017-10-02T03:32:09.533Z,983.33
2017-10-02T03:33:09.571Z,983.41
2017-10-02T03:34:09.603Z,983.39
2017-10-02T03:35:09.638Z,983.37
2017-10-02T03:36:09.681Z,983.43
2017-10-02T03:37:09.714Z,983.36
2017-10-02T03:38:09.741Z,983.37
2017-10-02T03:39:09.776Z,983.30
2017-10-02T03:40:09.810Z,983.33
2017-10-02T03:41:09.847Z,983.34
2017-10-02T03:42:09.882Z,983.33
2017-10-02T03:43:09.918Z,983.29
2017-10-02T03:44:09.951Z,983.33
2017-10-02T03:45:09.984Z,983.25
2017-10-02T03:46:10.020Z,983.30
2017-10-02T03:47:10.057Z,983.30
2017-10-02T03:48:10.091Z,983.25
2017-10-02T03:49:10.128Z,983.30
2017-10-02T03:50:10.163Z,983.31
2017-10-02T03:51:10.190Z,983.31
2017-10-02T03:52:10.228Z,983.30
2017-10-02T03:53:10.262Z,983.30
2017-10-02T03:54:10.300Z,983.30
2017-10-02T03:55:10.331Z,983.30
2017-10-02T03:56:10.364Z,983.34
2017-10-02T03:57:10.403Z,983.32
2017-10-02T03:58:10.436Z,983.30
2017-10-02T03:59:10.467Z,983.34
2017-10-02T04:00:10.503Z,983.34
2017-10-02T04:01:10.538Z,983.31
2017-10-02T04:02:10.578Z,983.28
2017-10-02T04:03:10.613Z,983.25
2017-10-02T04:04:10.644Z,983.21
2017-10-02T04:05:10.676Z,983.19
2017-10-02T04:06:10.710Z,983.17
2017-10-02T04:07:10.744Z,983.16
2017-10-02T04:08:10.780Z,983.16
2017-10-02T04:09:10.818Z,983.16
2017-10-02T04:10:10.854Z,983.15
2017-10-02T04:11:10.885Z,983.20
2017-10-02T04:12:10.921Z,983.22
2017-10-02T04:13:10.953Z,983.17
2017-10-02T04:14:10.991Z,983.21
2017-10-02T04:15:11.026Z,983.14
2017-10-02T04:16:11.065Z,983.17
2017-10-02T04:17:11.099Z,983.11
2017-10-02T04:18:11.129Z,983.09
2017-10-02T04:19:11.160Z,983.08
2017-10-02T04:20:11.196Z,983.02
2017-10-02T04:21:11.232Z,983.01
2017-10-02T04:22:11.266Z,983.04
2017-10-02T04:23:11.299Z,983.02
2017-10-02T04:24:11.339Z,983.04
2017-10-02T04:25:11.370Z,983.03
2017-10-02T04:26:11.403Z,983.07
2017-10-02T04:27:11.441Z,983.03
2017-10-02T04:28:11.472Z,983.00
2017-10-02T04:29:11.506Z,982.98
2017-10-02T04:30:11.544Z,982.98
2017-10-02T04:31:11.578Z,982.95
2017-10-02T04:32:11.611Z,983.00
2017-10-02T04:33:11.645Z,983.00
2017-10-02T04:34:11.681Z,982.98
2017-10-02T04:35:11.717Z,982.93
2017-10-02T04:36:11.756Z,982.91
2017-10-02T04:37:11.786Z,982.95
2017-10-02T04:38:11.821Z,982.95
2017-10-02T04:39:11.853Z,982.98
2017-10-02T04:40:11.886Z,982.97
2017-10-02T04:41:11.920Z,982.98
2017-10-02T04:42:11.958Z,982.97
2017-10-02T04:43:11.993Z,982.96
2017-10-02T04:44:12.025Z,982.93
2017-10-02T04:45:12.073Z,982.95
2017-10-02T04:46:12.093Z,982.91
2017-10-02T04:47:12.134Z,982.92
2017-10-02T04:48:12.166Z,982.86
2017-10-02T04:49:12.203Z,982.85
2017-10-02T04:50:12.234Z,982.89
2017-10-02T04:51:12.267Z,982.83
2017-10-02T04:52:12.303Z,982.84
2017-10-02T04:53:12.333Z,982.82
2017-10-02T04:54:12.369Z,982.81
2017-10-02T04:55:12.409Z,982.76
2017-10-02T04:56:12.437Z,982.80
2017-10-02T04:57:12.473Z,982.78
2017-10-02T04:58:12.511Z,982.78
2017-10-02T04:59:12.545Z,982.81
2017-10-02T05:00:12.581Z,982.73
2017-10-02T05:01:12.610Z,982.71
2017-10-02T05:02:12.646Z,982.69
2017-10-02T05:03:12.678Z,982.72
2017-10-02T05:04:12.715Z,982.71
2017-10-02T05:05:12.749Z,982.72
2017-10-02T05:06:12.792Z,982.75
2017-10-02T05:07:12.819Z,982.70
2017-10-02T05:08:12.851Z,982.73
2017-10-02T05:09:12.894Z,982.72
2017-10-02T05:10:12.944Z,982.72
2017-10-02T05:11:12.959Z,982.69
2017-10-02T05:12:12.991Z,982.72
2017-10-02T05:13:13.027Z,982.72
2017-10-02T05:14:13.057Z,982.73
2017-10-02T05:15:13.091Z,982.73
2017-10-02T05:16:13.129Z,982.73
2017-10-02T05:17:13.164Z,982.74
2017-10-02T05:18:13.201Z,982.76
2017-10-02T05:19:13.238Z,982.76
2017-10-02T05:20:13.269Z,982.77
2017-10-02T05:21:13.303Z,982.82
2017-10-02T05:22:13.338Z,982.83
2017-10-02T05:23:13.369Z,982.78
2017-10-02T05:24:13.409Z,982.86
2017-10-02T05:25:13.440Z,982.78
2017-10-02T05:26:13.474Z,982.82
2017-10-02T05:27:13.511Z,982.85
2017-10-02T05:28:13.545Z,982.81
2017-10-02T05:29:13.577Z,982.86
2017-10-02T05:30:13.613Z,982.85
2017-10-02T05:31:13.653Z,982.81
2017-10-02T05:32:13.682Z,982.75
2017-10-02T05:33:13.719Z,982.73
2017-10-02T05:34:13.754Z,982.77
2017-10-02T05:35:13.784Z,982.76
2017-10-02T05:36:13.820Z,982.75
2017-10-02T05:37:13.861Z,982.73
2017-10-02T05:38:13.888Z,982.73
2017-10-02T05:39:13.924Z,982.76
2017-10-02T05:40:13.960Z,982.72
2017-10-02T05:41:13.995Z,982.71
2017-10-02T05:42:14.026Z,982.70
2017-10-02T05:43:14.071Z,982.66
2017-10-02T05:44:14.092Z,982.70
2017-10-02T05:45:14.129Z,982.72
2017-10-02T05:46:14.166Z,982.70
2017-10-02T05:47:14.199Z,982.61
2017-10-02T05:48:14.240Z,982.63
2017-10-02T05:49:14.270Z,982.65
2017-10-02T05:50:14.303Z,982.66
2017-10-02T05:51:14.336Z,982.67
2017-10-02T05:52:14.375Z,982.63
2017-10-02T05:53:14.411Z,982.61
2017-10-02T05:54:14.569Z,982.57
2017-10-02T05:55:14.477Z,982.58
2017-10-02T05:56:14.511Z,982.54
2017-10-02T05:57:14.545Z,982.58
2017-10-02T05:58:14.580Z,982.58
2017-10-02T05:59:14.617Z,982.54
2017-10-02T06:00:14.652Z,982.50
2017-10-02T06:01:14.689Z,982.50
2017-10-02T06:02:14.724Z,982.47
2017-10-02T06:03:14.753Z,982.44
2017-10-02T06:04:14.789Z,982.40
2017-10-02T06:05:14.823Z,982.36
2017-10-02T06:06:14.861Z,982.38
2017-10-02T06:07:14.903Z,982.37
2017-10-02T06:08:14.952Z,982.36
2017-10-02T06:09:14.964Z,982.37
2017-10-02T06:10:15.001Z,982.41
2017-10-02T06:11:15.036Z,982.41
2017-10-02T06:12:15.072Z,982.40
2017-10-02T06:13:15.110Z,982.42
2017-10-02T06:14:15.151Z,982.42
2017-10-02T06:15:15.173Z,982.38
2017-10-02T06:16:15.211Z,982.38
2017-10-02T06:17:15.246Z,982.38
2017-10-02T06:18:15.369Z,982.34
2017-10-02T06:19:15.322Z,982.33
2017-10-02T06:20:15.350Z,982.33
2017-10-02T06:21:15.400Z,982.32
2017-10-02T06:22:15.426Z,982.28
2017-10-02T06:23:15.474Z,982.28
2017-10-02T06:24:15.493Z,982.22
2017-10-02T06:25:15.562Z,982.29
2017-10-02T06:26:15.669Z,982.23
2017-10-02T06:27:15.601Z,982.22
2017-10-02T06:28:15.633Z,982.26
2017-10-02T06:29:15.695Z,982.33
2017-10-02T06:30:15.724Z,982.22
2017-10-02T06:31:15.742Z,982.29
2017-10-02T06:32:15.787Z,982.31
2017-10-02T06:33:15.809Z,982.24
2017-10-02T06:34:15.845Z,982.25
2017-10-02T06:35:15.906Z,982.26
2017-10-02T06:36:15.918Z,982.22
2017-10-02T06:37:15.954Z,982.21
2017-10-02T06:38:15.998Z,982.17
2017-10-02T06:39:16.020Z,982.19
2017-10-02T06:40:16.061Z,982.19
2017-10-02T06:41:16.100Z,982.15
2017-10-02T06:42:16.145Z,982.19
2017-10-02T06:43:16.170Z,982.14
2017-10-02T06:44:16.201Z,982.16
2017-10-02T06:45:16.236Z,982.16
2017-10-02T06:46:16.280Z,982.17
2017-10-02T06:47:16.309Z,982.16
2017-10-02T06:48:16.340Z,982.17
2017-10-02T06:49:16.379Z,982.13
2017-10-02T06:50:16.415Z,982.13
2017-10-02T06:51:16.457Z,982.09
2017-10-02T06:52:16.484Z,982.12
2017-10-02T06:53:16.518Z,982.12
2017-10-02T06:54:16.555Z,982.10
2017-10-02T06:55:16.613Z,982.14
2017-10-02T06:56:16.635Z,982.09
2017-10-02T06:57:16.683Z,982.08
2017-10-02T06:58:16.700Z,982.09
2017-10-02T06:59:16.735Z,982.10
2017-10-02T07:00:16.790Z,982.03
2017-10-02T07:01:16.803Z,982.02
2017-10-02T07:02:16.840Z,981.95
2017-10-02T07:03:16.875Z,981.94
2017-10-02T07:04:16.920Z,981.94
2017-10-02T07:05:16.949Z,981.93
2017-10-02T07:06:16.984Z,981.95
2017-10-02T07:07:17.050Z,981.92
2017-10-02T07:08:17.055Z,981.89
2017-10-02T07:09:17.091Z,981.89
2017-10-02T07:10:17.129Z,981.92
2017-10-02T07:11:17.163Z,981.92
2017-10-02T07:12:17.199Z,981.92
2017-10-02T07:13:17.235Z,981.85
2017-10-02T07:14:17.268Z,981.81
2017-10-02T07:15:17.312Z,981.79
2017-10-02T07:16:17.370Z,981.77
2017-10-02T07:17:17.379Z,981.74
2017-10-02T07:18:17.427Z,981.72
2017-10-02T07:19:17.468Z,981.67
2017-10-02T07:20:17.488Z,981.67
2017-10-02T07:21:17.525Z,981.67
2017-10-02T07:22:17.561Z,981.62
2017-10-02T07:23:17.643Z,981.69
2017-10-02T07:24:17.629Z,981.69
2017-10-02T07:25:17.666Z,981.69
2017-10-02T07:26:17.708Z,981.75
2017-10-02T07:27:17.739Z,981.78
2017-10-02T07:28:17.783Z,981.81
2017-10-02T07:29:17.813Z,981.83
2017-10-02T07:30:17.850Z,981.84
2017-10-02T07:31:17.895Z,981.83
2017-10-02T07:32:17.921Z,981.79
2017-10-02T07:33:17.957Z,981.79
2017-10-02T07:34:17.996Z,981.80
2017-10-02T07:35:18.034Z,981.80
2017-10-02T07:36:18.163Z,981.81
2017-10-02T07:37:18.154Z,981.83
2017-10-02T07:38:18.146Z,981.83
2017-10-02T07:39:18.176Z,981.83
2017-10-02T07:40:18.216Z,981.82
2017-10-02T07:41:18.246Z,981.83
2017-10-02T07:42:18.288Z,981.80
2017-10-02T07:43:18.324Z,981.87
2017-10-02T07:44:18.464Z,981.89
2017-10-02T07:45:18.394Z,981.79
2017-10-02T07:46:18.434Z,981.84
2017-10-02T07:47:18.469Z,981.82
2017-10-02T07:48:18.503Z,981.84
2017-10-02T07:49:18.540Z,981.83
2017-10-02T07:50:18.647Z,981.85
2017-10-02T07:51:18.614Z,981.85
2017-10-02T07:52:18.654Z,981.79
2017-10-02T07:53:18.689Z,981.89
2017-10-02T07:54:18.726Z,981.87
2017-10-02T07:55:18.771Z,981.88
2017-10-02T07:56:18.820Z,981.89
2017-10-02T07:57:18.842Z,981.85
2017-10-02T07:58:18.870Z,981.84
2017-10-02T07:59:18.909Z,981.90
2017-10-02T08:00:18.945Z,981.87
2017-10-02T08:01:18.985Z,981.87
2017-10-02T08:02:19.019Z,981.87
2017-10-02T08:03:19.055Z,981.89
2017-10-02T08:04:19.091Z,981.87
2017-10-02T08:05:19.131Z,981.85
2017-10-02T08:06:19.165Z,981.90
2017-10-02T08:07:19.201Z,981.90
2017-10-02T08:08:19.352Z,981.91
2017-10-02T08:09:19.347Z,981.92
2017-10-02T08:10:19.318Z,981.86
2017-10-02T08:11:19.349Z,981.88
2017-10-02T08:12:19.386Z,981.86
2017-10-02T08:13:19.426Z,981.87
2017-10-02T08:14:19.507Z,981.90
2017-10-02T08:15:19.500Z,981.90
2017-10-02T08:16:19.542Z,981.89
2017-10-02T08:17:19.577Z,981.85
2017-10-02T08:18:19.612Z,981.83
2017-10-02T08:19:19.671Z,981.83
2017-10-02T08:20:19.684Z,981.80
2017-10-02T08:21:19.721Z,981.86
2017-10-02T08:22:19.758Z,981.86
2017-10-02T08:23:19.804Z,981.84
2017-10-02T08:24:19.833Z,981.80
2017-10-02T08:25:19.877Z,981.80
2017-10-02T08:26:19.917Z,981.79
2017-10-02T08:27:19.947Z,981.93
2017-10-02T08:28:19.982Z,981.82
2017-10-02T08:29:20.037Z,981.81
2017-10-02T08:30:20.058Z,981.77
2017-10-02T08:31:20.096Z,981.80
2017-10-02T08:32:20.134Z,981.81
2017-10-02T08:33:20.176Z,981.73
2017-10-02T08:34:20.217Z,981.74
2017-10-02T08:35:20.246Z,981.74
2017-10-02T08:36:20.287Z,981.73
2017-10-02T08:37:20.322Z,981.71
2017-10-02T08:38:20.366Z,981.72
2017-10-02T08:39:20.401Z,981.73
2017-10-02T08:40:20.438Z,981.71
2017-10-02T08:41:20.472Z,981.72
2017-10-02T08:42:20.606Z,981.60
2017-10-02T08:43:20.562Z,981.63
2017-10-02T08:44:20.593Z,981.53
2017-10-02T08:45:20.624Z,981.52
2017-10-02T08:46:20.665Z,981.48
2017-10-02T08:47:20.702Z,981.51
2017-10-02T08:48:20.738Z,981.49
2017-10-02T08:49:20.802Z,981.43
2017-10-02T08:50:20.816Z,981.46
2017-10-02T08:51:20.858Z,981.42
2017-10-02T08:52:20.897Z,981.41
2017-10-02T08:53:20.933Z,981.40
2017-10-02T08:54:20.973Z,981.33
2017-10-02T08:55:21.013Z,981.32
2017-10-02T08:56:21.047Z,981.34
2017-10-02T08:57:21.087Z,981.30
2017-10-02T08:58:21.122Z,981.27
2017-10-02T08:59:21.166Z,981.25
2017-10-02T09:00:21.199Z,981.26
2017-10-02T09:01:21.234Z,981.26
2017-10-02T09:02:21.274Z,981.32
2017-10-02T09:03:21.314Z,981.21
2017-10-02T09:04:21.350Z,981.31
2017-10-02T09:05:21.391Z,981.29
2017-10-02T09:06:21.441Z,981.26
2017-10-02T09:07:21.466Z,981.17
2017-10-02T09:08:21.504Z,981.16
2017-10-02T09:09:21.544Z,981.17
2017-10-02T09:10:21.584Z,981.18
2017-10-02T09:11:21.620Z,981.17
2017-10-02T09:12:21.661Z,981.08
2017-10-02T09:13:21.699Z,981.12
2017-10-02T09:14:21.739Z,981.18
2017-10-02T09:15:21.776Z,981.14
2017-10-02T09:16:21.816Z,981.06
2017-10-02T09:17:21.854Z,981.10
2017-10-02T09:18:21.936Z,981.07
2017-10-02T09:19:21.954Z,981.03
2017-10-02T09:20:21.984Z,981.04
2017-10-02T09:21:22.013Z,981.00
2017-10-02T09:22:22.057Z,981.00
2017-10-02T09:23:22.136Z,980.95
2017-10-02T09:24:22.153Z,980.98
2017-10-02T09:25:22.195Z,981.04
2017-10-02T09:26:22.210Z,981.00
2017-10-02T09:27:22.257Z,981.09
2017-10-02T09:28:22.290Z,980.98
2017-10-02T09:29:22.330Z,980.95
2017-10-02T09:30:22.364Z,980.97
2017-10-02T09:31:22.404Z,981.09
2017-10-02T09:32:22.445Z,980.90
2017-10-02T09:33:22.483Z,980.94
2017-10-02T09:34:22.523Z,980.90
2017-10-02T09:35:22.561Z,980.85
2017-10-02T09:36:22.603Z,980.77
2017-10-02T09:37:22.646Z,980.79
2017-10-02T09:38:22.681Z,980.80
2017-10-02T09:39:22.722Z,980.78
2017-10-02T09:40:22.767Z,980.68
2017-10-02T09:41:22.801Z,980.69
2017-10-02T09:42:22.840Z,980.73
2017-10-02T09:43:22.882Z,980.66
2017-10-02T09:44:22.930Z,980.66
2017-10-02T09:45:22.955Z,980.58
2017-10-02T09:46:22.998Z,980.65
2017-10-02T09:47:23.083Z,980.56
2017-10-02T09:48:23.076Z,980.64
2017-10-02T09:49:23.122Z,980.61
2017-10-02T09:50:23.155Z,980.56
2017-10-02T09:51:23.193Z,980.54
2017-10-02T09:52:23.232Z,980.52
2017-10-02T09:53:23.271Z,980.53
2017-10-02T09:54:23.311Z,980.55
2017-10-02T09:55:23.351Z,980.54
2017-10-02T09:56:23.388Z,980.45
2017-10-02T09:57:23.439Z,980.47
2017-10-02T09:58:23.472Z,980.47
2017-10-02T09:59:23.531Z,980.43
2017-10-02T10:00:23.573Z,980.39
2017-10-02T10:01:23.586Z,980.40
2017-10-02T10:02:23.626Z,980.44
2017-10-02T10:03:23.683Z,980.44
2017-10-02T10:04:23.713Z,980.50
2017-10-02T10:05:23.747Z,980.45
2017-10-02T10:06:23.793Z,980.48
2017-10-02T10:07:23.828Z,980.44
2017-10-02T10:08:23.873Z,980.53
2017-10-02T10:09:23.902Z,980.45
2017-10-02T10:10:23.941Z,980.45
2017-10-02T10:11:23.985Z,980.45
2017-10-02T10:12:24.027Z,980.47
2017-10-02T10:13:24.063Z,980.44
2017-10-02T10:14:24.100Z,980.46
2017-10-02T10:15:24.144Z,980.45
2017-10-02T10:16:24.178Z,980.35
2017-10-02T10:17:24.241Z,980.33
2017-10-02T10:18:24.269Z,980.38
2017-10-02T10:19:24.298Z,980.35
2017-10-02T10:20:24.342Z,980.39
2017-10-02T10:21:24.377Z,980.36
2017-10-02T10:22:24.419Z,980.38
2017-10-02T10:23:24.456Z,980.37
2017-10-02T10:24:24.507Z,980.31
2017-10-02T10:25:24.539Z,980.34
2017-10-02T10:26:24.579Z,980.35
2017-10-02T10:27:24.617Z,980.35
2017-10-02T10:28:24.657Z,980.33
2017-10-02T10:29:24.698Z,980.29
2017-10-02T10:30:24.738Z,980.29
2017-10-02T10:31:24.778Z,980.30
2017-10-02T10:32:24.820Z,980.25
2017-10-02T10:33:24.856Z,980.27
2017-10-02T10:34:24.900Z,980.16
2017-10-02T10:35:24.953Z,980.14
2017-10-02T10:36:25.036Z,980.11
2017-10-02T10:37:25.107Z,980.14
2017-10-02T10:38:25.063Z,980.12
2017-10-02T10:39:25.108Z,980.09
2017-10-02T10:40:25.200Z,980.10
2017-10-02T10:41:25.181Z,980.12
2017-10-02T10:42:25.222Z,980.09
2017-10-02T10:43:25.260Z,979.95
2017-10-02T10:44:25.315Z,980.03
2017-10-02T10:45:25.349Z,979.97
2017-10-02T10:46:25.381Z,980.00
2017-10-02T10:47:25.425Z,979.99
2017-10-02T10:48:25.466Z,979.98
2017-10-02T10:49:25.501Z,980.01
2017-10-02T10:50:25.548Z,979.99
2017-10-02T10:51:25.584Z,979.90
2017-10-02T10:52:25.623Z,979.87
2017-10-02T10:53:25.664Z,979.90
2017-10-02T10:54:25.715Z,979.80
2017-10-02T10:55:25.748Z,979.88
2017-10-02T10:56:25.782Z,979.87
2017-10-02T10:57:25.831Z,979.82
2017-10-02T10:58:25.871Z,979.84
2017-10-02T10:59:25.909Z,979.80
2017-10-02T11:00:25.952Z,979.74
2017-10-02T11:01:25.997Z,979.76
2017-10-02T11:02:26.025Z,979.76
2017-10-02T11:03:26.077Z,979.76
2017-10-02T11:04:26.129Z,979.76
2017-10-02T11:05:26.166Z,979.79
2017-10-02T11:06:26.192Z,979.74
2017-10-02T11:07:26.228Z,979.80
2017-10-02T11:08:26.272Z,979.73
2017-10-02T11:09:26.334Z,979.77
2017-10-02T11:10:26.368Z,979.67
2017-10-02T11:11:26.394Z,979.68
2017-10-02T11:12:26.435Z,979.68
2017-10-02T11:13:26.474Z,979.66
2017-10-02T11:14:26.512Z,979.69
2017-10-02T11:15:26.553Z,979.65
2017-10-02T11:16:26.592Z,979.64
2017-10-02T11:17:26.634Z,979.82
2017-10-02T11:18:26.685Z,979.63
2017-10-02T11:19:26.721Z,979.58
2017-10-02T11:20:26.760Z,979.64
2017-10-02T11:21:26.804Z,979.65
2017-10-02T11:22:26.836Z,979.67
2017-10-02T11:23:26.876Z,979.70
2017-10-02T11:24:26.925Z,979.66
2017-10-02T11:25:26.961Z,979.69
2017-10-02T11:26:27.025Z,979.69
2017-10-02T11:27:27.041Z,979.70
2017-10-02T11:28:27.084Z,979.74
2017-10-02T11:29:27.132Z,979.69
2017-10-02T11:30:27.168Z,979.69
2017-10-02T11:31:27.210Z,979.68
2017-10-02T11:32:27.246Z,979.69
2017-10-02T11:33:27.297Z,979.71
2017-10-02T11:34:27.351Z,979.67
2017-10-02T11:35:27.366Z,979.68
2017-10-02T11:36:27.444Z,979.61
2017-10-02T11:37:27.478Z,979.63
2017-10-02T11:38:27.485Z,979.63
2017-10-02T11:39:27.541Z,979.57
2017-10-02T11:40:27.574Z,979.61
2017-10-02T11:41:27.610Z,979.54
2017-10-02T11:42:27.652Z,979.52
2017-10-02T11:43:27.691Z,979.52
2017-10-02T11:44:27.728Z,979.50
2017-10-02T11:45:27.784Z,979.48
2017-10-02T11:46:27.812Z,979.50
2017-10-02T11:47:27.861Z,979.52
2017-10-02T11:48:27.902Z,979.49
2017-10-02T11:49:27.946Z,979.46
2017-10-02T11:50:27.976Z,979.52
2017-10-02T11:51:28.015Z,979.46
2017-10-02T11:52:28.057Z,979.55
2017-10-02T11:53:28.095Z,979.48
2017-10-02T11:54:28.155Z,979.54
2017-10-02T11:55:28.179Z,979.54
2017-10-02T11:56:28.215Z,979.50
2017-10-02T11:57:28.264Z,979.55
2017-10-02T11:58:28.300Z,979.53
2017-10-02T11:59:28.338Z,979.53
2017-10-02T12:00:28.378Z,979.58
2017-10-02T12:01:28.422Z,979.58
2017-10-02T12:02:28.462Z,979.58
2017-10-02T12:03:28.504Z,979.59
2017-10-02T12:04:28.542Z,979.53
2017-10-02T12:05:28.582Z,979.51
2017-10-02T12:06:28.627Z,979.60
2017-10-02T12:07:28.695Z,979.57
2017-10-02T12:08:28.703Z,979.63
2017-10-02T12:09:28.749Z,979.57
2017-10-02T12:10:28.791Z,979.58
2017-10-02T12:11:28.826Z,979.61
2017-10-02T12:12:28.874Z,979.57
2017-10-02T12:13:28.911Z,979.55
2017-10-02T12:14:28.949Z,979.51
2017-10-02T12:15:28.988Z,979.53
2017-10-02T12:16:29.033Z,979.53
2017-10-02T12:17:29.074Z,979.47
2017-10-02T12:18:29.114Z,979.49
2017-10-02T12:19:29.155Z,979.44
2017-10-02T12:20:29.267Z,979.47
2017-10-02T12:21:29.234Z,979.45
2017-10-02T12:22:29.275Z,979.45
2017-10-02T12:23:29.318Z,979.50
2017-10-02T12:24:29.376Z,979.51
2017-10-02T12:25:29.402Z,979.47
2017-10-02T12:26:29.436Z,979.43
2017-10-02T12:27:29.477Z,979.44
2017-10-02T12:28:29.524Z,979.46